Time;durP1;ratioP1;P1;durP2;ratioP2;P2;SDS_P1;SDS_P2;PMS_P1;PMS_P2;Temp;Humidity;BMP_temperature;BMP_pressure;BME280_temperature;BME280_humidity;BME280_pressure;Samples;Min_cycle;Max_cycle;Signal;HPM_P1;HPM_P2
2024/02/12 00:00:18;;;;;;;23.60;8.40;;;;;;;-3.20;100.00;99263.00;4961782;28;20045;-76
2024/02/12 00:03:04;;;;;;;18.37;8.37;;;;;;;-3.20;100.00;99263.00;4997125;28;20053;-75
2024/02/12 00:05:34;;;;;;;20.53;9.57;;;;;;;-3.15;100.00;99242.78;4978184;28;20395;-74
2024/02/12 00:08:04;;;;;;;19.73;8.93;;;;;;;-3.31;100.00;99239.34;4993883;28;20061;-74
2024/02/12 00:10:30;;;;;;;20.77;8.50;;;;;;;-3.24;100.00;99234.69;4946259;28;20140;-74
2024/02/12 00:12:57;;;;;;;14.70;7.50;;;;;;;-2.97;100.00;99243.56;4945239;28;20172;-74
2024/02/12 00:15:23;;;;;;;20.83;9.03;;;;;;;-3.09;100.00;99242.44;4947285;28;20041;-75
2024/02/12 00:17:49;;;;;;;15.17;7.47;;;;;;;-3.03;100.00;99243.91;4981143;28;20065;-74
2024/02/12 00:20:16;;;;;;;19.63;7.87;;;;;;;-3.01;100.00;99237.69;4958782;28;20145;-74
2024/02/12 00:22:43;;;;;;;15.10;6.77;;;;;;;-3.02;100.00;99242.97;4957354;28;20748;-75
2024/02/12 00:25:12;;;;;;;17.23;7.63;;;;;;;-2.97;100.00;99240.97;4940204;28;20062;-75
2024/02/12 00:27:39;;;;;;;20.37;8.43;;;;;;;-3.03;100.00;99239.56;4924281;28;20078;-75
2024/02/12 00:30:08;;;;;;;18.57;9.90;;;;;;;-3.06;100.00;99238.88;4955966;28;20086;-75
2024/02/12 00:32:38;;;;;;;20.10;8.33;;;;;;;-3.09;100.00;99226.06;4942970;28;20054;-75
2024/02/12 00:35:06;;;;;;;17.83;7.73;;;;;;;-3.01;100.00;99226.47;4946799;28;20065;-75
2024/02/12 00:37:35;;;;;;;19.07;8.17;;;;;;;-2.99;100.00;99225.47;4975568;28;20055;-74
2024/02/12 00:40:09;;;;;;;17.37;7.47;;;;;;;-2.90;100.00;99230.16;4963624;28;20198;-74
2024/02/12 00:42:39;;;;;;;18.97;8.10;;;;;;;-2.97;100.00;99235.78;4948380;28;20117;-74
2024/02/12 00:45:09;;;;;;;16.17;7.67;;;;;;;-2.85;100.00;99222.94;4928038;28;20058;-75
2024/02/12 00:47:36;;;;;;;20.40;8.43;;;;;;;-3.09;100.00;99205.28;4941126;28;20050;-72
2024/02/12 00:50:05;;;;;;;23.27;8.30;;;;;;;-2.90;100.00;99221.50;4924550;28;20062;-72
2024/02/12 00:52:37;;;;;;;21.87;9.20;;;;;;;-2.92;100.00;99223.38;4963521;28;20046;-72
2024/02/12 00:55:06;;;;;;;19.50;8.00;;;;;;;-2.72;100.00;99217.91;4963145;28;20061;-71
2024/02/12 00:57:46;;;;;;;22.77;8.50;;;;;;;-2.74;100.00;99207.59;4967224;28;20050;-71
2024/02/12 01:00:14;;;;;;;21.70;8.17;;;;;;;-2.73;100.00;99213.63;4962087;28;20074;-74
2024/02/12 01:02:55;;;;;;;18.43;9.30;;;;;;;-2.72;100.00;99218.72;4966207;28;20049;-74
2024/02/12 01:05:22;;;;;;;20.40;8.50;;;;;;;-2.79;100.00;99201.81;4963203;28;20096;-74
2024/02/12 01:07:49;;;;;;;19.20;9.03;;;;;;;-2.79;100.00;99216.56;4954187;28;20057;-74
2024/02/12 01:10:16;;;;;;;21.10;9.23;;;;;;;-2.85;100.00;99202.16;5002923;28;20045;-75
2024/02/12 01:12:43;;;;;;;19.60;8.03;;;;;;;-2.76;100.00;99200.78;5000553;28;20046;-75
2024/02/12 01:15:10;;;;;;;17.40;8.20;;;;;;;-2.77;100.00;99199.97;5000803;28;20398;-74
2024/02/12 01:17:57;;;;;;;21.30;9.07;;;;;;;-2.83;100.00;99194.28;5019635;28;20063;-74
2024/02/12 01:20:23;;;;;;;21.67;9.10;;;;;;;-2.85;100.00;99211.72;4984471;28;20107;-74
2024/02/12 01:22:49;;;;;;;22.80;9.77;;;;;;;-2.82;100.00;99196.78;4979694;28;20060;-74
2024/02/12 01:25:18;;;;;;;21.80;9.53;;;;;;;-2.77;100.00;99196.53;4964491;28;20638;-74
2024/02/12 01:27:46;;;;;;;20.10;8.70;;;;;;;-2.71;100.00;99196.19;4966587;28;20073;-74
2024/02/12 01:30:13;;;;;;;21.80;9.63;;;;;;;-2.86;100.00;99197.88;4966995;28;20049;-74
2024/02/12 01:32:39;;;;;;;22.00;9.03;;;;;;;-2.76;100.00;99187.81;4958916;28;20104;-73
2024/02/12 01:35:05;;;;;;;19.13;8.50;;;;;;;-2.69;100.00;99189.16;4984884;28;20396;-76
2024/02/12 01:37:33;;;;;;;18.80;9.00;;;;;;;-2.72;100.00;99187.53;4981386;28;20137;-74
2024/02/12 01:39:59;;;;;;;21.63;10.40;;;;;;;-2.64;100.00;99187.09;4980472;28;20070;-74
2024/02/12 01:42:25;;;;;;;28.20;10.33;;;;;;;-2.73;100.00;99179.84;4948015;28;20041;-74
2024/02/12 01:45:23;;;;;;;19.83;8.10;;;;;;;-2.56;100.00;99177.13;4996517;28;20049;-74
2024/02/12 01:47:57;;;;;;;20.93;8.70;;;;;;;-2.59;100.00;99172.94;4996794;28;20056;-74
2024/02/12 01:50:26;;;;;;;21.63;9.60;;;;;;;-2.64;100.00;99171.50;4997251;28;20562;-74
2024/02/12 01:52:52;;;;;;;21.73;9.80;;;;;;;-2.58;100.00;99173.75;4980315;28;20047;-73
2024/02/12 01:55:20;;;;;;;25.07;10.10;;;;;;;-2.55;100.00;99173.59;4980828;28;20073;-73
2024/02/12 01:57:47;;;;;;;22.43;9.77;;;;;;;-2.53;100.00;99172.59;4964385;28;20180;-73
2024/02/12 02:00:23;;;;;;;24.17;9.60;;;;;;;-2.48;100.00;99167.13;4988991;28;20055;-73
2024/02/12 02:03:17;;;;;;;29.40;10.80;;;;;;;-2.64;100.00;99171.50;5004984;28;20554;-74
2024/02/12 02:05:47;;;;;;;24.93;10.37;;;;;;;-2.63;100.00;99162.81;5018937;28;20048;-73
2024/02/12 02:08:13;;;;;;;23.23;9.43;;;;;;;-2.65;100.00;99169.84;5002599;28;20052;-74
2024/02/12 02:10:39;;;;;;;20.27;8.70;;;;;;;-2.54;100.00;99159.69;5002059;28;20161;-74
2024/02/12 02:13:12;;;;;;;20.67;9.67;;;;;;;-2.57;100.00;99167.66;5019065;28;20063;-74
2024/02/12 02:15:59;;;;;;;20.73;9.17;;;;;;;-2.51;100.00;99162.09;5023409;28;20144;-74
2024/02/12 02:18:25;;;;;;;24.60;9.17;;;;;;;-2.55;100.00;99163.22;5001809;28;20044;-74
2024/02/12 02:21:12;;;;;;;22.00;10.00;;;;;;;-2.60;100.00;99157.44;5009770;28;20122;-74
2024/02/12 02:23:42;;;;;;;20.50;9.00;;;;;;;-2.56;100.00;99151.13;5019144;28;20045;-74
2024/02/12 02:26:08;;;;;;;23.20;9.20;;;;;;;-2.58;100.00;99150.38;4985233;28;20048;-74
2024/02/12 02:28:35;;;;;;;22.50;9.87;;;;;;;-2.56;100.00;99145.91;4998243;28;20050;-74
2024/02/12 02:31:01;;;;;;;23.43;9.27;;;;;;;-2.51;100.00;99144.75;5014855;28;20088;-74
2024/02/12 02:33:29;;;;;;;21.37;9.23;;;;;;;-2.48;100.00;99141.13;4980557;28;20148;-74
2024/02/12 02:35:55;;;;;;;21.83;9.37;;;;;;;-2.52;100.00;99134.44;4979576;28;20068;-75
2024/02/12 02:38:22;;;;;;;23.83;10.40;;;;;;;-2.51;100.00;99123.09;4995321;28;20404;-75
2024/02/12 02:40:48;;;;;;;22.43;9.53;;;;;;;-2.45;100.00;99136.59;4997634;28;20757;-75
2024/02/12 02:43:16;;;;;;;27.33;10.13;;;;;;;-2.48;100.00;99123.78;4995829;28;20053;-75
2024/02/12 02:45:42;;;;;;;25.80;10.20;;;;;;;-2.43;100.00;99128.69;4996532;28;20033;-75
2024/02/12 02:48:19;;;;;;;23.33;9.60;;;;;;;-2.44;100.00;99122.66;4985095;28;20057;-74
2024/02/12 02:50:46;;;;;;;21.57;10.77;;;;;;;-2.46;100.00;99123.69;4976289;28;20089;-74
2024/02/12 02:53:12;;;;;;;26.47;9.97;;;;;;;-2.45;100.00;99131.38;4961227;28;20077;-74
2024/02/12 02:55:39;;;;;;;24.07;10.13;;;;;;;-2.42;100.00;99122.56;4961962;28;20111;-74
2024/02/12 02:58:05;;;;;;;23.93;9.77;;;;;;;-2.29;100.00;99120.94;4978964;28;20042;-74
2024/02/12 03:00:33;;;;;;;21.37;9.07;;;;;;;-2.36;100.00;99117.84;5015760;28;20095;-73
2024/02/12 03:03:08;;;;;;;21.50;9.10;;;;;;;-2.37;100.00;99110.94;5018768;28;20063;-69
2024/02/12 03:05:35;;;;;;;23.47;9.87;;;;;;;-2.37;100.00;99105.75;5018218;28;20524;-70
2024/02/12 03:08:06;;;;;;;24.47;10.67;;;;;;;-2.42;100.00;99107.81;5000488;28;20065;-70
2024/02/12 03:10:34;;;;;;;20.83;9.73;;;;;;;-2.35;100.00;99113.47;5034350;28;20469;-70
2024/02/12 03:13:00;;;;;;;19.63;8.63;;;;;;;-2.29;100.00;99115.72;5016998;28;20479;-70
2024/02/12 03:15:26;;;;;;;22.97;9.17;;;;;;;-2.31;100.00;99099.38;5013878;28;20131;-68
2024/02/12 03:17:53;;;;;;;24.90;10.33;;;;;;;-2.43;100.00;99100.91;5000554;28;20044;-67
2024/02/12 03:20:21;;;;;;;24.00;11.10;;;;;;;-2.44;100.00;99103.59;5025238;28;20144;-68
2024/02/12 03:22:47;;;;;;;22.40;10.20;;;;;;;-2.45;100.00;99107.16;5016154;28;20049;-68
2024/02/12 03:25:15;;;;;;;21.73;9.40;;;;;;;-2.35;100.00;99092.66;5015623;28;20045;-67
2024/02/12 03:27:43;;;;;;;23.53;9.40;;;;;;;-2.42;100.00;99101.75;4995305;28;20523;-69
2024/02/12 03:30:09;;;;;;;25.43;10.33;;;;;;;-2.44;100.00;99093.22;4999517;28;20037;-70
2024/02/12 03:32:39;;;;;;;21.13;9.77;;;;;;;-2.35;100.00;99087.47;4991487;28;20072;-67
2024/02/12 03:35:09;;;;;;;23.57;9.23;;;;;;;-2.41;100.00;99080.03;5012207;28;20048;-64
2024/02/12 03:37:57;;;;;;;24.83;8.98;;;;;;;-2.23;100.00;99079.75;5030795;28;20041;-66
2024/02/12 03:40:28;;;;;;;24.63;9.63;;;;;;;-2.30;100.00;99075.88;5017252;28;20048;-68
2024/02/12 03:42:56;;;;;;;18.88;9.00;;;;;;;-2.22;100.00;99078.00;4998943;28;20375;-67
2024/02/12 03:45:22;;;;;;;21.43;8.60;;;;;;;-2.18;100.00;99067.31;5018029;28;20056;-71
2024/02/12 03:47:49;;;;;;;18.63;7.77;;;;;;;-2.10;100.00;99061.66;5005025;28;20103;-68
2024/02/12 04:01:23;;;;;;;25.63;9.40;;;;;;;-2.18;100.00;99050.88;5004934;28;20132;-71
2024/02/12 04:03:49;;;;;;;21.17;8.47;;;;;;;-2.05;100.00;99050.06;4994732;28;20724;-70
2024/02/12 04:06:16;;;;;;;20.73;8.80;;;;;;;-2.19;100.00;99044.88;5013312;28;20052;-70
2024/02/12 04:08:42;;;;;;;16.33;7.83;;;;;;;-2.10;100.00;99041.69;4995955;28;20045;-71
2024/02/12 04:11:12;;;;;;;17.63;8.50;;;;;;;-1.97;100.00;99057.38;4996407;28;20057;-70
2024/02/12 04:13:39;;;;;;;20.45;9.05;;;;;;;-2.07;100.00;99053.66;5029063;28;20103;-68
2024/02/12 04:16:06;;;;;;;19.87;8.47;;;;;;;-2.06;100.00;99060.56;5012772;28;20076;-69
2024/02/12 04:18:34;;;;;;;20.27;9.87;;;;;;;-2.12;100.00;99060.91;5014783;28;20381;-69
2024/02/12 04:21:08;;;;;;;22.47;10.27;;;;;;;-2.23;100.00;99060.75;5014897;28;20053;-71
2024/02/12 04:23:37;;;;;;;20.87;9.60;;;;;;;-2.13;100.00;99051.44;5015265;28;20512;-69
2024/02/12 04:26:06;;;;;;;20.43;9.67;;;;;;;-2.19;100.00;99054.41;4998581;28;20467;-70
2024/02/12 04:28:33;;;;;;;18.33;9.23;;;;;;;-2.09;100.00;99058.16;5014177;28;20041;-70
2024/02/12 04:30:59;;;;;;;22.07;10.40;;;;;;;-2.14;100.00;99048.00;4997238;28;20045;-70
2024/02/12 04:33:25;;;;;;;19.77;8.63;;;;;;;-2.18;100.00;99033.50;4998039;28;20052;-70
2024/02/12 04:35:50;;;;;;;27.60;10.90;;;;;;;-2.17;100.00;99055.16;5014182;28;20337;-70
2024/02/12 04:38:17;;;;;;;21.03;9.17;;;;;;;-2.14;100.00;99048.00;4997866;28;20349;-70
2024/02/12 04:40:43;;;;;;;22.67;10.20;;;;;;;-2.12;100.00;99046.16;5030377;28;20055;-70
2024/02/12 04:43:09;;;;;;;20.20;9.30;;;;;;;-2.06;100.00;99043.16;4997246;28;20045;-70
2024/02/12 04:45:35;;;;;;;20.00;8.73;;;;;;;-2.05;100.00;99044.84;4997605;28;20045;-69
2024/02/12 04:48:01;;;;;;;21.73;9.67;;;;;;;-2.09;100.00;99038.16;4997805;28;20055;-70
2024/02/12 04:50:27;;;;;;;20.60;9.97;;;;;;;-2.08;100.00;99045.03;5029041;28;20061;-70
2024/02/12 04:52:53;;;;;;;23.37;8.83;;;;;;;-1.91;100.00;99031.81;4995523;28;20045;-70
2024/02/12 04:55:20;;;;;;;20.90;8.83;;;;;;;-1.88;100.00;99033.41;4998243;28;20047;-70
2024/02/12 04:57:46;;;;;;;23.67;9.50;;;;;;;-1.95;100.00;99040.75;4981458;28;20108;-69
2024/02/12 05:00:13;;;;;;;20.37;8.83;;;;;;;-1.91;100.00;99025.78;5012013;28;20460;-70
2024/02/12 05:02:53;;;;;;;19.83;8.98;;;;;;;-2.01;100.00;99035.91;5019266;28;20480;-69
2024/02/12 05:05:19;;;;;;;20.00;9.67;;;;;;;-1.90;100.00;99022.25;5000283;28;20050;-70
2024/02/12 05:07:46;;;;;;;21.03;9.30;;;;;;;-1.96;100.00;99040.84;4983590;28;20052;-69
2024/02/12 05:10:12;;;;;;;20.83;9.13;;;;;;;-1.91;100.00;99029.19;4983406;28;20433;-71
2024/02/12 05:12:49;;;;;;;19.30;9.20;;;;;;;-1.89;100.00;99029.94;4986777;28;20060;-69
2024/02/12 05:15:15;;;;;;;19.70;8.40;;;;;;;-1.76;100.00;99024.81;4983921;28;20152;-70
2024/02/12 05:18:06;;;;;;;28.33;10.63;;;;;;;-1.84;100.00;99027.91;4983575;28;20033;-71
2024/02/12 05:23:21;;;;;;;23.03;8.97;;;;;;;-1.93;100.00;99015.47;4986716;28;20474;-70
2024/02/12 05:25:47;;;;;;;17.67;9.03;;;;;;;-1.80;100.00;99023.34;4984169;28;20045;-69
2024/02/12 05:28:13;;;;;;;16.00;8.33;;;;;;;-1.76;100.00;99020.47;4999453;28;20195;-69
2024/02/12 05:30:39;;;;;;;17.83;8.77;;;;;;;-1.79;100.00;99012.84;4985949;28;20096;-69
2024/02/12 05:33:09;;;;;;;19.37;9.63;;;;;;;-1.79;100.00;99017.22;5000544;28;20053;-69
2024/02/12 05:35:36;;;;;;;19.55;9.25;;;;;;;-1.72;100.00;99018.47;5016879;28;20048;-71
2024/02/12 05:38:02;;;;;;;19.77;8.33;;;;;;;-1.63;100.00;99017.91;5000539;28;20045;-70
2024/02/12 05:40:28;;;;;;;17.03;8.37;;;;;;;-1.63;100.00;99019.69;5000605;28;20053;-70
2024/02/12 05:42:53;;;;;;;18.63;8.63;;;;;;;-1.61;100.00;99018.63;5016516;28;20048;-70
2024/02/12 05:45:19;;;;;;;20.83;9.47;;;;;;;-1.68;100.00;99022.56;5000001;28;20048;-70
2024/02/12 05:48:00;;;;;;;20.30;9.82;;;;;;;-1.66;100.00;99020.69;5004344;28;20064;-70
2024/02/12 05:50:26;;;;;;;18.97;9.50;;;;;;;-1.57;100.00;99025.34;5000233;28;20179;-70
2024/02/12 05:52:52;;;;;;;18.37;9.00;;;;;;;-1.52;100.00;99022.44;5016667;28;20045;-70
2024/02/12 05:55:19;;;;;;;20.20;9.50;;;;;;;-1.57;100.00;99017.53;5001494;28;20049;-70
2024/02/12 05:57:45;;;;;;;17.27;8.40;;;;;;;-1.52;100.00;99012.84;5004362;28;20151;-69
2024/02/12 06:00:11;;;;;;;19.87;9.17;;;;;;;-1.57;100.00;99016.69;4988642;28;20930;-69
2024/02/12 06:02:53;;;;;;;19.93;8.87;;;;;;;-1.66;100.00;99012.88;5007796;28;20048;-71
2024/02/12 06:05:19;;;;;;;20.77;9.43;;;;;;;-1.66;100.00;99025.91;5017553;28;20049;-70
2024/02/12 06:07:45;;;;;;;19.67;9.73;;;;;;;-1.72;100.00;99016.72;5000071;28;20048;-69
2024/02/12 06:10:11;;;;;;;24.63;9.33;;;;;;;-1.63;100.00;99019.69;5000719;28;20117;-69
2024/02/12 06:12:37;;;;;;;21.17;9.00;;;;;;;-1.63;100.00;99017.91;4998779;28;20476;-69
2024/02/12 06:15:03;;;;;;;17.80;8.97;;;;;;;-1.61;100.00;99023.84;5000197;28;20053;-70
2024/02/12 06:17:33;;;;;;;20.15;8.00;;;;;;;-1.54;100.00;99012.13;4999932;28;20400;-69
2024/02/12 06:19:59;;;;;;;19.27;8.90;;;;;;;-1.49;100.00;99007.44;4999203;28;20053;-69
2024/02/12 06:22:25;;;;;;;17.73;8.07;;;;;;;-1.40;100.00;99008.63;4966710;28;20095;-69
2024/02/12 06:24:52;;;;;;;15.83;8.33;;;;;;;-1.42;100.00;98998.31;4999709;28;20048;-70
2024/02/12 06:27:17;;;;;;;20.50;9.30;;;;;;;-1.43;100.00;99012.25;4999081;28;20077;-70
2024/02/12 06:29:43;;;;;;;18.50;8.00;;;;;;;-1.35;100.00;98996.97;4998398;28;20053;-69
2024/02/12 06:32:14;;;;;;;17.53;8.37;;;;;;;-1.37;100.00;98985.84;4998611;28;20045;-70
2024/02/12 06:34:46;;;;;;;14.73;8.27;;;;;;;-1.25;100.00;99000.66;4998291;28;20052;-69
2024/02/12 06:37:13;;;;;;;18.30;9.00;;;;;;;-1.32;100.00;98998.56;4965915;28;20037;-69
2024/02/12 06:39:39;;;;;;;22.90;8.40;;;;;;;-1.50;100.00;99003.16;4982241;28;20061;-69
2024/02/12 06:42:06;;;;;;;17.37;7.67;;;;;;;-1.44;100.00;99005.38;4966101;28;20047;-69
2024/02/12 06:44:32;;;;;;;17.97;8.30;;;;;;;-1.39;100.00;98979.03;4997250;28;20471;-69
2024/02/12 06:47:00;;;;;;;18.10;8.37;;;;;;;-1.44;100.00;98979.34;4999172;28;20403;-70
2024/02/12 06:49:26;;;;;;;16.27;8.17;;;;;;;-1.39;100.00;98984.25;5031590;28;20095;-69
2024/02/12 06:51:52;;;;;;;18.20;9.27;;;;;;;-1.48;100.00;98988.28;5015161;28;20136;-70
2024/02/12 06:54:18;;;;;;;19.20;9.20;;;;;;;-1.41;100.00;98986.94;4998823;28;20037;-70
2024/02/12 06:56:44;;;;;;;18.10;9.00;;;;;;;-1.42;100.00;98987.03;4982742;28;20037;-69
2024/02/12 06:59:10;;;;;;;17.77;8.17;;;;;;;-1.41;100.00;98983.50;4999148;28;20049;-69
2024/02/12 07:01:38;;;;;;;18.60;8.87;;;;;;;-1.53;100.00;98982.53;5031610;28;20498;-69
2024/02/12 07:04:04;;;;;;;11.97;6.90;;;;;;;-1.39;100.00;98979.88;5031836;28;20041;-69
2024/02/12 07:06:31;;;;;;;17.97;9.00;;;;;;;-1.51;100.00;98985.88;4999584;28;20103;-70
2024/02/12 07:08:58;;;;;;;21.33;8.90;;;;;;;-1.41;100.00;98965.28;4982563;28;20051;-69
2024/02/12 07:11:27;;;;;;;15.97;7.67;;;;;;;-1.24;100.00;98972.81;5015056;28;20132;-69
2024/02/12 07:13:53;;;;;;;17.53;7.80;;;;;;;-1.22;100.00;98971.81;5014797;28;20051;-69
2024/02/12 07:16:20;;;;;;;19.27;8.30;;;;;;;-1.02;100.00;98965.25;4998378;28;20175;-69
2024/02/12 07:18:47;;;;;;;17.03;8.57;;;;;;;-1.07;100.00;98977.75;5014786;28;20055;-69
2024/02/12 07:21:14;;;;;;;19.03;8.63;;;;;;;-1.13;100.00;98970.34;5014675;28;20057;-69
2024/02/12 07:23:40;;;;;;;20.73;9.43;;;;;;;-1.10;100.00;98972.75;4998056;28;20506;-69
2024/02/12 07:26:07;;;;;;;18.20;8.10;;;;;;;-1.03;100.00;98981.84;5031480;28;20049;-69
2024/02/12 07:28:35;;;;;;;17.60;8.70;;;;;;;-0.99;100.00;98975.47;4998470;28;20041;-69
2024/02/12 07:31:01;;;;;;;16.53;8.33;;;;;;;-1.05;100.00;98970.69;4998293;28;20041;-70
2024/02/12 07:33:27;;;;;;;18.03;8.33;;;;;;;-0.96;100.00;98960.47;5014538;28;20456;-69
2024/02/12 07:35:53;;;;;;;19.93;8.87;;;;;;;-0.84;100.00;98964.84;4998087;28;20045;-70
2024/02/12 07:38:18;;;;;;;16.17;8.67;;;;;;;-0.99;100.00;98971.09;4998164;28;20042;-69
2024/02/12 07:40:45;;;;;;;15.30;7.90;;;;;;;-0.82;100.00;98960.38;4998165;28;20472;-68
2024/02/12 07:43:11;;;;;;;15.33;8.07;;;;;;;-0.85;100.00;98962.34;4998077;28;20041;-68
2024/02/12 07:45:38;;;;;;;18.80;8.53;;;;;;;-0.97;100.00;98977.03;4980952;28;20045;-69
2024/02/12 07:48:04;;;;;;;17.03;8.90;;;;;;;-0.93;100.00;98962.88;4981095;28;20080;-69
2024/02/12 07:50:31;;;;;;;17.40;8.77;;;;;;;-0.98;100.00;98972.75;4965094;28;20148;-69
2024/02/12 07:52:57;;;;;;;16.80;8.43;;;;;;;-0.94;100.00;98947.34;4981005;28;20037;-69
2024/02/12 07:55:23;;;;;;;17.60;8.53;;;;;;;-0.79;100.00;98956.72;4981137;28;20122;-70
2024/02/12 07:58:01;;;;;;;20.50;8.43;;;;;;;-0.68;100.00;98952.47;4983848;28;20049;-70
2024/02/12 08:00:27;;;;;;;16.77;8.83;;;;;;;-0.63;100.00;98958.19;5013642;28;20049;-70
2024/02/12 08:02:53;;;;;;;16.07;8.10;;;;;;;-0.74;100.00;98965.88;4997036;28;20052;-70
2024/02/12 08:05:20;;;;;;;17.80;8.60;;;;;;;-0.75;100.00;98964.22;4997535;28;20081;-69
2024/02/12 08:07:48;;;;;;;17.10;8.67;;;;;;;-0.64;100.00;98966.94;4981467;28;20137;-69
2024/02/12 08:10:14;;;;;;;16.63;7.60;;;;;;;-0.57;100.00;98951.72;4997502;28;20041;-69
2024/02/12 08:12:42;;;;;;;19.40;8.47;;;;;;;-0.57;100.00;98959.53;4981249;28;20049;-69
2024/02/12 08:15:11;;;;;;;14.27;7.33;;;;;;;-0.41;100.00;98958.38;4981518;28;20407;-71
2024/02/12 08:17:59;;;;;;;17.53;7.17;;;;;;;-0.31;100.00;98969.00;5017113;28;20057;-69
2024/02/12 08:20:27;;;;;;;15.10;7.77;;;;;;;-0.33;100.00;98960.44;4982113;28;20191;-70
2024/02/12 08:22:56;;;;;;;14.80;6.83;;;;;;;-0.15;100.00;98970.44;4997721;28;20503;-69
2024/02/12 08:25:22;;;;;;;15.23;7.57;;;;;;;-0.21;100.00;98960.44;4997793;28;20396;-69
2024/02/12 08:27:49;;;;;;;13.37;6.47;;;;;;;0.06;100.00;98960.28;5030753;28;20151;-69
2024/02/12 08:30:15;;;;;;;18.00;8.20;;;;;;;-0.04;100.00;98975.75;4997795;28;20048;-69
2024/02/12 08:32:42;;;;;;;14.33;7.43;;;;;;;-0.04;100.00;98967.06;4998037;28;20099;-69
2024/02/12 08:35:09;;;;;;;15.53;7.53;;;;;;;-0.17;100.00;98956.66;4998138;28;20144;-70
2024/02/12 08:37:55;;;;;;;11.23;6.20;;;;;;;-0.07;100.00;98957.69;5007395;28;20499;-70
2024/02/12 08:40:26;;;;;;;12.83;7.07;;;;;;;-0.17;100.00;98967.09;5001980;28;20510;-69
2024/02/12 08:42:52;;;;;;;13.70;6.93;;;;;;;-0.09;100.00;98959.56;5001828;28;20039;-70
2024/02/12 08:45:18;;;;;;;12.70;7.13;;;;;;;-0.08;100.00;98949.97;5018382;28;20384;-69
2024/02/12 08:47:59;;;;;;;12.05;6.30;;;;;;;0.16;100.00;98944.75;5007134;28;20087;-69
2024/02/12 08:50:25;;;;;;;19.23;7.70;;;;;;;0.26;100.00;98949.22;5002352;28;20540;-70
2024/02/12 08:52:53;;;;;;;15.70;7.00;;;;;;;0.36;100.00;98945.00;5001782;28;20057;-69
2024/02/12 08:55:19;;;;;;;12.77;7.23;;;;;;;0.45;100.00;98941.72;5001538;28;20191;-69
2024/02/12 08:57:45;;;;;;;10.97;5.80;;;;;;;0.60;100.00;98945.00;5001202;28;20519;-69
2024/02/12 09:00:12;;;;;;;15.47;6.33;;;;;;;0.53;100.00;98935.91;5017953;28;20041;-70
2024/02/12 09:02:58;;;;;;;12.80;6.07;;;;;;;0.62;100.00;98940.47;5033990;28;20042;-69
2024/02/12 09:05:24;;;;;;;12.57;5.87;;;;;;;0.54;100.00;98937.59;5000994;28;20045;-69
2024/02/12 09:07:52;;;;;;;11.30;6.27;;;;;;;0.51;100.00;98935.22;5017735;28;20351;-70
2024/02/12 09:10:20;;;;;;;11.00;6.30;;;;;;;0.59;100.00;98930.25;5018241;28;20045;-69
2024/02/12 09:12:46;;;;;;;13.20;7.30;;;;;;;0.61;100.00;98926.59;5016987;28;20069;-69
2024/02/12 09:15:16;;;;;;;15.43;7.80;;;;;;;0.44;100.00;98928.75;5001193;28;20048;-69
2024/02/12 09:17:47;;;;;;;14.40;7.37;;;;;;;0.38;100.00;98916.16;5017676;28;20037;-69
2024/02/12 09:20:14;;;;;;;12.55;6.45;;;;;;;0.59;100.00;98914.56;5017345;28;20344;-69
2024/02/12 09:22:42;;;;;;;13.43;6.33;;;;;;;0.49;100.00;98913.59;5017560;28;20119;-69
2024/02/12 09:25:12;;;;;;;10.77;6.00;;;;;;;0.58;100.00;98912.91;4984483;28;20042;-70
2024/02/12 09:27:45;;;;;;;9.97;5.47;;;;;;;0.57;100.00;98906.84;4985414;28;20113;-69
2024/02/12 09:30:12;;;;;;;13.00;6.73;;;;;;;0.38;100.00;98896.09;5001114;28;20065;-69
2024/02/12 09:32:38;;;;;;;10.23;5.67;;;;;;;0.33;100.00;98905.19;5000411;28;20053;-69
2024/02/12 09:35:06;;;;;;;10.90;5.37;;;;;;;0.42;100.00;98894.91;5016668;28;20049;-69
2024/02/12 09:37:34;;;;;;;13.13;5.63;;;;;;;0.41;100.00;98877.59;5000703;28;20037;-69
2024/02/12 09:40:03;;;;;;;14.20;5.67;;;;;;;0.57;100.00;98879.91;5016897;28;20502;-69
2024/02/12 09:42:35;;;;;;;10.27;5.00;;;;;;;0.50;100.00;98889.97;5017460;28;20056;-69
2024/02/12 09:45:07;;;;;;;9.23;4.93;;;;;;;0.59;100.00;98883.22;5016266;28;20120;-69
2024/02/12 09:47:37;;;;;;;9.50;5.20;;;;;;;0.43;100.00;98895.75;4999814;28;20041;-70
2024/02/12 09:50:07;;;;;;;9.77;5.17;;;;;;;0.69;100.00;98873.75;5000003;28;20041;-69
2024/02/12 09:52:35;;;;;;;8.70;4.67;;;;;;;0.80;100.00;98872.00;5016767;28;20384;-69
2024/02/12 09:55:03;;;;;;;8.30;4.90;;;;;;;0.96;100.00;98871.66;5016888;28;20041;-70
2024/02/12 09:57:33;;;;;;;10.57;6.10;;;;;;;0.82;100.00;98875.31;5001264;28;20041;-70
2024/02/12 09:59:59;;;;;;;11.50;5.73;;;;;;;0.64;100.00;98870.66;5000112;28;20099;-70
2024/02/12 10:02:25;;;;;;;7.53;4.93;;;;;;;0.87;100.00;98869.75;4999973;28;20053;-68
2024/02/12 10:05:16;;;;;;;11.93;5.80;;;;;;;0.88;100.00;98879.25;5023824;28;20076;-69
2024/02/12 10:08:03;;;;;;;9.07;5.20;;;;;;;0.76;100.00;98873.19;5023966;28;20060;-69
2024/02/12 10:10:49;;;;;;;10.40;4.67;;;;;;;1.00;100.00;98858.25;5023940;28;20052;-69
2024/02/12 10:13:35;;;;;;;9.23;4.73;;;;;;;0.91;100.00;98850.25;5018292;28;20053;-70
2024/02/12 10:16:25;;;;;;;6.83;4.20;;;;;;;0.95;100.00;98864.78;5033323;28;20049;-69
2024/02/12 10:19:11;;;;;;;8.13;4.40;;;;;;;1.00;100.00;98847.78;5020502;28;20146;-69
2024/02/12 10:21:58;;;;;;;8.07;4.77;;;;;;;0.85;100.00;98858.56;5007445;28;20215;-69
2024/02/12 10:24:47;;;;;;;7.87;4.10;;;;;;;0.99;100.00;98845.28;5020907;28;20384;-69
2024/02/12 10:27:34;;;;;;;8.33;4.60;;;;;;;0.96;100.00;98842.91;5004720;28;20203;-69
2024/02/12 10:30:21;;;;;;;8.30;4.10;;;;;;;0.81;100.00;98844.94;5018166;28;20431;-69
2024/02/12 10:33:09;;;;;;;8.87;4.70;;;;;;;0.86;100.00;98834.13;4990729;28;20403;-69
2024/02/12 10:35:57;;;;;;;6.03;3.93;;;;;;;0.78;100.00;98826.88;5012953;28;20470;-69
2024/02/12 10:38:43;;;;;;;6.87;4.20;;;;;;;0.93;100.00;98845.75;5003577;28;20052;-69
2024/02/12 10:41:32;;;;;;;8.80;4.00;;;;;;;1.06;100.00;98836.84;5003904;28;20049;-69
2024/02/12 10:44:22;;;;;;;8.30;4.53;;;;;;;1.06;100.00;98836.84;4995371;28;20516;-69
2024/02/12 10:47:09;;;;;;;6.83;4.10;;;;;;;0.94;100.00;98840.41;5018937;28;20472;-69
2024/02/12 10:49:38;;;;;;;8.00;4.07;;;;;;;0.89;100.00;98839.91;5015284;28;20060;-70
2024/02/12 10:52:24;;;;;;;7.30;3.97;;;;;;;0.81;100.00;98844.09;5004914;28;20471;-68
2024/02/12 10:55:10;;;;;;;8.43;4.30;;;;;;;0.68;100.00;98840.72;5018525;28;20124;-69
2024/02/12 10:57:43;;;;;;;7.30;3.63;;;;;;;0.83;100.00;98831.75;5015295;28;20068;-69
2024/02/12 11:00:18;;;;;;;6.30;3.80;;;;;;;0.83;100.00;98829.94;5014995;28;20049;-69
2024/02/12 11:03:05;;;;;;;8.43;3.67;;;;;;;0.89;100.00;98836.50;5017846;28;20057;-69
2024/02/12 11:05:41;;;;;;;8.40;4.23;;;;;;;1.05;100.00;98832.59;4999201;28;20041;-69
2024/02/12 11:08:23;;;;;;;6.60;3.90;;;;;;;1.15;100.00;98828.28;5016420;28;20348;-69
2024/02/12 11:10:50;;;;;;;8.73;4.07;;;;;;;1.07;100.00;98833.31;5015982;28;20045;-68
2024/02/12 11:13:17;;;;;;;7.00;4.13;;;;;;;1.27;100.00;98824.75;4999818;28;20049;-69
2024/02/12 11:15:55;;;;;;;6.50;3.70;;;;;;;1.57;100.00;98830.16;4999754;28;20053;-68
2024/02/12 11:18:25;;;;;;;5.40;3.70;;;;;;;1.44;100.00;98821.63;5015257;28;20446;-69
2024/02/12 11:20:57;;;;;;;6.30;4.10;;;;;;;1.52;100.00;98821.03;4993901;28;20080;-67
2024/02/12 11:23:24;;;;;;;6.87;3.93;;;;;;;1.56;100.00;98825.06;4977999;28;20092;-68
2024/02/12 11:26:00;;;;;;;6.23;4.20;;;;;;;1.61;100.00;98822.91;4962091;28;20503;-69
2024/02/12 11:28:30;;;;;;;8.33;5.27;;;;;;;1.65;100.00;98826.94;4962337;28;20108;-70
2024/02/12 11:30:57;;;;;;;8.70;5.25;;;;;;;1.37;100.00;98815.22;4962027;28;20056;-70
2024/02/12 11:33:25;;;;;;;10.03;5.83;;;;;;;1.36;100.00;98812.72;4978119;28;20057;-70
2024/02/12 11:36:11;;;;;;;8.30;4.87;;;;;;;1.54;100.00;98812.09;4945980;28;20127;-71
2024/02/12 11:38:50;;;;;;;9.70;5.57;;;;;;;1.49;100.00;98818.66;5009736;28;20076;-69
2024/02/12 11:41:18;;;;;;;9.67;5.27;;;;;;;1.27;100.00;98811.66;4978655;28;20049;-69
2024/02/12 11:43:47;;;;;;;9.57;5.50;;;;;;;1.17;100.00;98805.47;4972427;28;20064;-69
2024/02/12 11:46:15;;;;;;;8.90;5.13;;;;;;;0.88;100.00;98798.22;4971087;28;20063;-66